Holyhead, United Kingdom

1:03 PM BST on May 04, 2015 (GMT +0100)
Sandy Beach | | Change Station
CLOSE
Current Station
Personal Weather Station
Location: Llanfwrog, ANGLESEY
Elevation: 10 ft
Nearby Weather Stations

Elev 10 ft 53.33 °N, 4.57 °W | Updated 1 minute ago

Scattered Clouds
Scattered Clouds
55.8 °F
Feels Like 55.8 °F
N
15.9
Wind Variable Wind from South
Gusts 22.8 mph

Today
High -- | Low -- °F
--% Chance of Precip.
Yesterday
High -- | Low -- °F
Precip. -- in
5:40 AM 8:55 PM
Full, 100% visible
Pressure 29.56 in
Visibility 6.2 miles
Clouds Scattered Clouds 21000 ft
Dew Point 43 °F
Humidity 62%
Rainfall 0.09 in
Snow Depth Not available.
UV 6 out of 12
Pollen Not available.
Air Quality Not available.
Flu Activity Not available.
METAR EGOV 041150Z AUTO 18014KT 9999 SCT210/// 13/08 Q1001

More Conditions Fewer Conditions

Pressure 29.56 in
Visibility 6.2 miles
Clouds Scattered Clouds 21000 ft
Dew Point 43 °F
Humidity 62%
Rainfall 0.09 in
Snow Depth Not available.
UV 6 out of 12
Pollen Not available.
Air Quality Not available.
Flu Activity Not available.
METAR EGOV 041150Z AUTO 18014KT 9999 SCT210/// 13/08 Q1001

More Conditions Fewer Conditions

10-Day Weather Forecast

Almanac

Astronomy

May. 04, 2015 Rise Set
Actual Time
Civil Twilight
Nautical Twilight
Astronomical Twilight
Moon
Length of Visible Light
Length of Day
Tomorrow will be .
, % of the Moon is Illuminated

Today's Extremes

Country Highs Country Lows

Community

WunderPhotos

Upload Photos

1,818,580 photos uploaded!

WunderBlogs® & News

Nearby

Air Quality

  Air Quality AQ Index Pollutant
Not available.

Snow Depth

Station Depth Elevation

Earthquake Activity

City Distance Mag. Time & Date
Minimum magnitude displayed is 2.5.

Coastal Water Temperatures

Place Temperature

Stations

Nearby Weather Stations

Station Location Temp. Windchill Dew Point Humidity Wind Precip. Elev Updated Type